Time;durP1;ratioP1;P1;durP2;ratioP2;P2;SDS_P1;SDS_P2;PMS_P1;PMS_P2;Temp;Humidity;BMP_temperature;BMP_pressure;BME280_temperature;BME280_humidity;BME280_pressure;Samples;Min_cycle;Max_cycle;Signal;HPM_P1;HPM_P2
2022/11/11 00:01:01;;;;;;;9.70;7.10;;;;;;;;;;4996880;28;20238;-81
2022/11/11 00:03:28;;;;;;;6.70;6.00;;;;;;;;;;4995096;28;20727;-81
2022/11/11 00:05:56;;;;;;;9.13;6.47;;;;;;;;;;5012668;28;20211;-81
2022/11/11 00:08:23;;;;;;;6.90;6.20;;;;;;;;;;5013021;28;20210;-81
2022/11/11 00:10:51;;;;;;;11.40;6.00;;;;;;;;;;5002390;28;20217;-81
2022/11/11 00:13:18;;;;;;;6.03;5.43;;;;;;;;;;4996720;28;20258;-81
2022/11/11 00:15:45;;;;;;;6.97;5.40;;;;;;;;;;5012825;28;20226;-82
2022/11/11 00:26:47;;;;;;;6.00;5.40;;;;;;;;;;4992237;28;20241;-77
2022/11/11 00:29:15;;;;;;;6.93;5.53;;;;;;;;;;5013532;28;20220;-80
2022/11/11 00:36:59;;;;;;;8.13;5.77;;;;;;;;;;5912945;23;20516;-80
2022/11/11 00:39:26;;;;;;;7.47;5.47;;;;;;;;;;4998177;28;20834;-80
2022/11/11 00:41:54;;;;;;;5.87;5.27;;;;;;;;;;4995343;28;20730;-80
2022/11/11 00:44:21;;;;;;;5.50;5.00;;;;;;;;;;4997150;28;20228;-79
2022/11/11 00:52:18;;;;;;;8.03;6.30;;;;;;;;;;5000539;28;20397;-80
2022/11/11 00:54:45;;;;;;;6.77;5.60;;;;;;;;;;5000528;28;20793;-80
2022/11/11 00:57:13;;;;;;;10.30;5.63;;;;;;;;;;5000315;28;20242;-81
2022/11/11 00:59:40;;;;;;;21.47;5.43;;;;;;;;;;5001058;28;20671;-81
2022/11/11 01:02:07;;;;;;;16.20;5.83;;;;;;;;;;4998391;28;20836;-81
2022/11/11 01:04:34;;;;;;;8.63;6.20;;;;;;;;;;4996175;28;20721;-81
2022/11/11 01:07:02;;;;;;;10.40;6.17;;;;;;;;;;4996322;28;20234;-81
2022/11/11 01:09:29;;;;;;;8.20;6.30;;;;;;;;;;4998507;28;20223;-81
2022/11/11 01:11:56;;;;;;;9.40;5.63;;;;;;;;;;4998187;28;20241;-81
2022/11/11 01:14:24;;;;;;;7.83;6.17;;;;;;;;;;4996080;28;20203;-81
2022/11/11 01:16:51;;;;;;;9.10;6.17;;;;;;;;;;4997404;28;20767;-81
2022/11/11 01:19:18;;;;;;;6.80;5.80;;;;;;;;;;4996285;28;20206;-81
2022/11/11 01:21:45;;;;;;;7.97;5.93;;;;;;;;;;4999009;28;20635;-81
2022/11/11 01:24:12;;;;;;;7.73;6.50;;;;;;;;;;4999784;28;20312;-81
2022/11/11 01:26:39;;;;;;;9.13;6.00;;;;;;;;;;4996993;28;20236;-81
2022/11/11 01:29:06;;;;;;;15.27;6.17;;;;;;;;;;4999019;28;20221;-81
2022/11/11 01:31:35;;;;;;;7.87;6.23;;;;;;;;;;4998829;28;20228;-81
2022/11/11 01:34:02;;;;;;;7.13;6.00;;;;;;;;;;4998269;28;20201;-81
2022/11/11 01:36:29;;;;;;;9.83;6.63;;;;;;;;;;4996586;28;20285;-81
2022/11/11 01:38:58;;;;;;;10.33;6.57;;;;;;;;;;4998102;28;20226;-81
2022/11/11 01:41:32;;;;;;;7.63;6.00;;;;;;;;;;5000106;28;20608;-81
2022/11/11 01:44:00;;;;;;;8.47;5.97;;;;;;;;;;5015366;28;20307;-80
2022/11/11 01:46:35;;;;;;;7.77;5.80;;;;;;;;;;5015409;28;20236;-80
2022/11/11 01:49:19;;;;;;;10.47;6.13;;;;;;;;;;5016820;28;20211;-81
2022/11/11 01:51:48;;;;;;;7.47;5.40;;;;;;;;;;5004929;28;20290;-81
2022/11/11 01:54:18;;;;;;;7.47;5.57;;;;;;;;;;5015127;28;20217;-81
2022/11/11 01:56:47;;;;;;;6.10;5.47;;;;;;;;;;5013494;28;20230;-82
2022/11/11 01:59:16;;;;;;;7.20;5.60;;;;;;;;;;5014822;28;20352;-80
2022/11/11 02:01:45;;;;;;;6.20;5.50;;;;;;;;;;5019343;28;20255;-80
2022/11/11 02:07:07;;;;;;;5.80;5.20;;;;;;;;;;5011571;28;20240;-80
2022/11/11 02:09:36;;;;;;;7.83;5.80;;;;;;;;;;5014288;28;20276;-81
2022/11/11 02:14:53;;;;;;;7.90;5.97;;;;;;;;;;5019723;28;20233;-80
2022/11/11 02:17:21;;;;;;;7.23;6.53;;;;;;;;;;5014424;28;20231;-81
2022/11/11 02:19:53;;;;;;;6.17;5.57;;;;;;;;;;5024314;28;20240;-80
2022/11/11 02:22:24;;;;;;;7.00;6.03;;;;;;;;;;5009597;28;20233;-79
2022/11/11 02:24:55;;;;;;;10.50;6.33;;;;;;;;;;5010504;28;20226;-80
2022/11/11 02:27:23;;;;;;;6.47;5.87;;;;;;;;;;5009249;28;20294;-80
2022/11/11 02:29:52;;;;;;;7.57;5.80;;;;;;;;;;5008694;28;20606;-79
2022/11/11 02:32:19;;;;;;;7.20;5.70;;;;;;;;;;5018919;28;20233;-80
2022/11/11 02:34:47;;;;;;;8.70;6.20;;;;;;;;;;5019025;28;20577;-80
2022/11/11 02:37:15;;;;;;;7.43;5.73;;;;;;;;;;5022830;28;20268;-80
2022/11/11 02:39:44;;;;;;;5.40;4.90;;;;;;;;;;5021126;28;20207;-80
2022/11/11 02:42:15;;;;;;;6.87;5.30;;;;;;;;;;5030057;28;20231;-80
2022/11/11 02:44:43;;;;;;;7.43;5.30;;;;;;;;;;5017797;28;20279;-80
2022/11/11 02:47:10;;;;;;;5.47;4.90;;;;;;;;;;5024854;28;20296;-80
2022/11/11 02:49:38;;;;;;;5.73;4.70;;;;;;;;;;5020746;28;20201;-79
2022/11/11 02:52:05;;;;;;;8.57;5.50;;;;;;;;;;5026182;28;20228;-80
2022/11/11 02:54:33;;;;;;;6.07;4.77;;;;;;;;;;5026948;28;20202;-79
2022/11/11 02:57:07;;;;;;;6.20;5.27;;;;;;;;;;5025132;28;20224;-79
2022/11/11 02:59:36;;;;;;;6.13;5.17;;;;;;;;;;5021616;28;20173;-80
2022/11/11 03:02:03;;;;;;;5.83;4.83;;;;;;;;;;5022874;28;20238;-80
2022/11/11 03:04:31;;;;;;;5.60;4.97;;;;;;;;;;5022139;28;20239;-80
2022/11/11 03:06:58;;;;;;;8.83;5.83;;;;;;;;;;5028042;28;20243;-80
2022/11/11 03:09:26;;;;;;;6.30;5.50;;;;;;;;;;5021810;28;20228;-80
2022/11/11 03:11:54;;;;;;;6.10;5.43;;;;;;;;;;5023888;28;20314;-80
2022/11/11 03:14:22;;;;;;;6.17;5.57;;;;;;;;;;5014879;28;20210;-79
2022/11/11 03:19:36;;;;;;;6.97;5.13;;;;;;;;;;5032303;28;20183;-80
2022/11/11 03:22:02;;;;;;;7.07;6.17;;;;;;;;;;5033925;28;20253;-80
2022/11/11 03:27:12;;;;;;;5.93;5.33;;;;;;;;;;5022624;28;20247;-79
2022/11/11 03:29:39;;;;;;;5.40;4.90;;;;;;;;;;5028999;28;20234;-81
2022/11/11 03:32:09;;;;;;;5.53;5.03;;;;;;;;;;5034547;28;20239;-80
2022/11/11 03:34:37;;;;;;;7.73;5.83;;;;;;;;;;5018389;28;20255;-79
2022/11/11 03:39:50;;;;;;;5.67;5.03;;;;;;;;;;5012204;28;20182;-80
2022/11/11 03:42:17;;;;;;;8.30;5.20;;;;;;;;;;5020467;28;20229;-80
2022/11/11 03:44:45;;;;;;;5.73;5.17;;;;;;;;;;5005410;28;20311;-80
2022/11/11 03:47:15;;;;;;;5.37;4.73;;;;;;;;;;5021083;28;20231;-80
2022/11/11 03:49:44;;;;;;;6.87;5.47;;;;;;;;;;5022915;28;20247;-80
2022/11/11 03:52:12;;;;;;;6.47;5.30;;;;;;;;;;5017916;28;20262;-81
2022/11/11 03:54:40;;;;;;;7.40;5.67;;;;;;;;;;5017220;28;20201;-80
2022/11/11 03:59:53;;;;;;;6.37;5.40;;;;;;;;;;5026099;28;20194;-80
2022/11/11 04:10:37;;;;;;;8.30;4.87;;;;;;;;;;5023374;28;20263;-80
2022/11/11 04:16:06;;;;;;;6.23;4.90;;;;;;;;;;5024394;28;20191;-80
2022/11/11 04:25:47;;;;;;;5.47;4.97;;;;;;;;;;5019077;28;20215;-81
2022/11/11 04:26:53;;;;;;;7.60;5.27;;;;;;;;;;5004349;28;20242;-81
2022/11/11 04:29:29;;;;;;;5.67;5.07;;;;;;;;;;4999033;28;20250;-81
2022/11/11 04:34:43;;;;;;;6.20;5.10;;;;;;;;;;4992702;28;20211;-81
2022/11/11 04:37:11;;;;;;;6.43;4.90;;;;;;;;;;4991948;28;20235;-80
2022/11/11 04:42:23;;;;;;;16.17;6.40;;;;;;;;;;4990981;28;20255;-80
2022/11/11 04:47:35;;;;;;;10.30;5.47;;;;;;;;;;4992233;28;20662;-79
2022/11/11 04:50:03;;;;;;;18.70;6.07;;;;;;;;;;4993114;28;20222;-80
2022/11/11 04:52:30;;;;;;;16.57;6.33;;;;;;;;;;4987530;28;20239;-79
2022/11/11 04:57:44;;;;;;;13.37;6.00;;;;;;;;;;5004546;28;20238;-81
2022/11/11 05:00:12;;;;;;;10.27;5.50;;;;;;;;;;5005047;28;20210;-80
2022/11/11 05:05:26;;;;;;;9.90;6.00;;;;;;;;;;5010185;28;20235;-80
2022/11/11 05:10:40;;;;;;;7.97;5.73;;;;;;;;;;4974565;28;20614;-80
2022/11/11 05:21:25;;;;;;;6.40;4.73;;;;;;;;;;5003725;28;20243;-80
2022/11/11 05:26:52;;;;;;;5.80;5.30;;;;;;;;;;4929960;28;20316;-80
2022/11/11 05:29:19;;;;;;;5.70;5.20;;;;;;;;;;4931618;29;20206;-81
2022/11/11 05:31:46;;;;;;;7.60;5.17;;;;;;;;;;4957660;28;20243;-81
2022/11/11 05:34:13;;;;;;;5.57;5.07;;;;;;;;;;4991528;28;20212;-81
2022/11/11 05:36:42;;;;;;;5.10;4.60;;;;;;;;;;4995577;28;20711;-81
2022/11/11 05:39:09;;;;;;;5.27;4.77;;;;;;;;;;4990797;28;20230;-81
2022/11/11 05:41:36;;;;;;;7.00;6.30;;;;;;;;;;4991710;28;20773;-81
2022/11/11 05:44:03;;;;;;;7.73;5.67;;;;;;;;;;4991795;28;20710;-81
2022/11/11 05:46:30;;;;;;;6.67;5.43;;;;;;;;;;4991816;28;20235;-81
2022/11/11 05:49:15;;;;;;;9.10;5.30;;;;;;;;;;4990520;28;20228;-81
2022/11/11 05:51:44;;;;;;;5.87;5.23;;;;;;;;;;4991710;28;20246;-81
2022/11/11 05:54:11;;;;;;;6.40;5.60;;;;;;;;;;4984917;28;20544;-81
2022/11/11 05:56:38;;;;;;;8.07;5.40;;;;;;;;;;4993354;28;20234;-81
2022/11/11 05:59:05;;;;;;;7.73;5.07;;;;;;;;;;4989934;28;20221;-80
2022/11/11 06:01:32;;;;;;;6.23;5.17;;;;;;;;;;5011529;28;20242;-81
2022/11/11 06:03:59;;;;;;;6.27;5.67;;;;;;;;;;5003263;28;20235;-81
2022/11/11 06:06:27;;;;;;;6.73;5.47;;;;;;;;;;4991510;28;20367;-80
2022/11/11 06:08:55;;;;;;;9.33;6.03;;;;;;;;;;4989337;28;20639;-78
2022/11/11 06:11:23;;;;;;;6.83;5.40;;;;;;;;;;4988383;28;20271;-78
2022/11/11 06:13:50;;;;;;;9.10;6.57;;;;;;;;;;4986282;28;20204;-78
2022/11/11 06:16:17;;;;;;;14.17;8.27;;;;;;;;;;4991044;28;20248;-78
2022/11/11 06:18:44;;;;;;;10.60;8.20;;;;;;;;;;4991686;28;20231;-78
2022/11/11 06:21:11;;;;;;;9.27;7.30;;;;;;;;;;5005221;28;20227;-78
2022/11/11 06:23:39;;;;;;;11.17;6.73;;;;;;;;;;4990467;28;20204;-78
2022/11/11 06:26:13;;;;;;;9.40;7.00;;;;;;;;;;4989808;28;20228;-78
2022/11/11 06:28:40;;;;;;;12.77;7.53;;;;;;;;;;4984216;28;20227;-78
2022/11/11 06:31:07;;;;;;;12.73;7.07;;;;;;;;;;4991353;28;20239;-79
2022/11/11 06:33:35;;;;;;;12.60;7.60;;;;;;;;;;4994459;28;20235;-78
2022/11/11 06:36:02;;;;;;;12.70;7.90;;;;;;;;;;4994708;28;20240;-79
2022/11/11 06:38:29;;;;;;;13.60;7.03;;;;;;;;;;4994203;28;20227;-79
2022/11/11 06:40:56;;;;;;;17.50;8.60;;;;;;;;;;4993155;28;20212;-77
2022/11/11 06:43:25;;;;;;;24.50;13.23;;;;;;;;;;4992851;28;20223;-77
2022/11/11 06:45:53;;;;;;;22.47;14.37;;;;;;;;;;4991160;28;20260;-77
2022/11/11 06:48:21;;;;;;;17.87;11.13;;;;;;;;;;4991171;28;20824;-76
2022/11/11 06:50:48;;;;;;;17.23;10.57;;;;;;;;;;4992785;28;20215;-77
2022/11/11 06:53:16;;;;;;;17.00;10.20;;;;;;;;;;4993569;28;20216;-76
2022/11/11 06:55:43;;;;;;;12.47;8.00;;;;;;;;;;4992120;28;20673;-77
2022/11/11 06:58:11;;;;;;;9.30;7.53;;;;;;;;;;4999609;28;20938;-76
2022/11/11 07:00:40;;;;;;;13.70;8.47;;;;;;;;;;4991176;28;20219;-77
2022/11/11 07:03:08;;;;;;;20.03;10.87;;;;;;;;;;4993294;28;20211;-77
2022/11/11 07:05:35;;;;;;;15.00;9.20;;;;;;;;;;4992996;28;20232;-77
2022/11/11 07:08:03;;;;;;;16.97;8.40;;;;;;;;;;4993818;28;20255;-76
2022/11/11 07:10:30;;;;;;;15.27;8.77;;;;;;;;;;4994366;28;20204;-76
2022/11/11 07:12:57;;;;;;;11.53;7.63;;;;;;;;;;5001058;28;20235;-76
2022/11/11 07:15:24;;;;;;;10.83;8.50;;;;;;;;;;4996702;28;20210;-78
2022/11/11 07:17:53;;;;;;;10.03;7.80;;;;;;;;;;4977270;28;20252;-80
2022/11/11 07:20:20;;;;;;;13.07;8.07;;;;;;;;;;4993972;28;20216;-78
2022/11/11 07:22:47;;;;;;;13.53;8.57;;;;;;;;;;4993675;28;20240;-78
2022/11/11 07:25:15;;;;;;;12.10;8.17;;;;;;;;;;4993681;28;20228;-78
2022/11/11 07:27:42;;;;;;;14.03;8.87;;;;;;;;;;4992863;28;20244;-78
2022/11/11 07:30:10;;;;;;;18.57;9.53;;;;;;;;;;4991151;28;20201;-78
2022/11/11 07:32:38;;;;;;;20.47;10.03;;;;;;;;;;4990916;28;20732;-78
2022/11/11 07:35:07;;;;;;;18.13;9.43;;;;;;;;;;4995060;28;20211;-78
2022/11/11 07:37:34;;;;;;;17.40;10.20;;;;;;;;;;5003072;28;20599;-79
2022/11/11 07:40:01;;;;;;;32.47;10.07;;;;;;;;;;4993982;28;20211;-77
2022/11/11 07:42:28;;;;;;;34.77;9.97;;;;;;;;;;4991925;28;20634;-78
2022/11/11 07:44:55;;;;;;;32.83;17.40;;;;;;;;;;4993011;28;20235;-78
2022/11/11 07:47:22;;;;;;;38.47;13.53;;;;;;;;;;5001118;28;20235;-79
2022/11/11 07:49:49;;;;;;;25.57;12.13;;;;;;;;;;4994263;28;20200;-78
2022/11/11 07:52:18;;;;;;;30.50;11.37;;;;;;;;;;4993128;28;20249;-78
2022/11/11 07:54:45;;;;;;;26.83;10.90;;;;;;;;;;4995037;28;20200;-78
2022/11/11 07:57:12;;;;;;;32.00;13.30;;;;;;;;;;4992329;28;20240;-78
2022/11/11 07:59:39;;;;;;;33.03;12.83;;;;;;;;;;4992603;28;20215;-79
2022/11/11 08:02:06;;;;;;;29.17;11.93;;;;;;;;;;4991252;28;20723;-78
2022/11/11 08:04:33;;;;;;;27.20;10.80;;;;;;;;;;4992438;28;20230;-78
2022/11/11 08:07:00;;;;;;;26.00;10.80;;;;;;;;;;4992570;28;20243;-78
2022/11/11 08:09:29;;;;;;;24.43;10.10;;;;;;;;;;4996429;28;20220;-78
2022/11/11 08:14:40;;;;;;;28.33;11.87;;;;;;;;;;4992447;28;20308;-78
2022/11/11 08:17:07;;;;;;;36.13;12.67;;;;;;;;;;4992044;28;20247;-78
2022/11/11 08:19:35;;;;;;;36.47;13.07;;;;;;;;;;4993624;28;20204;-77
2022/11/11 08:22:03;;;;;;;51.13;13.47;;;;;;;;;;5007777;28;20235;-78
2022/11/11 08:24:31;;;;;;;42.80;14.63;;;;;;;;;;4997605;28;20315;-78
2022/11/11 08:26:58;;;;;;;46.13;15.47;;;;;;;;;;4992144;28;20246;-78
2022/11/11 08:29:25;;;;;;;37.10;14.20;;;;;;;;;;4991524;28;20212;-78
2022/11/11 08:31:52;;;;;;;47.60;16.30;;;;;;;;;;4992183;28;20237;-78
2022/11/11 08:34:20;;;;;;;40.47;13.47;;;;;;;;;;4987040;28;20212;-78
2022/11/11 08:36:47;;;;;;;37.67;12.00;;;;;;;;;;4991318;28;20228;-78
2022/11/11 08:39:14;;;;;;;45.33;12.20;;;;;;;;;;4991278;28;20201;-78
2022/11/11 08:41:42;;;;;;;38.27;11.00;;;;;;;;;;4991658;28;20235;-78
2022/11/11 08:44:09;;;;;;;36.77;12.20;;;;;;;;;;5002602;28;20202;-78
2022/11/11 08:46:37;;;;;;;35.17;12.17;;;;;;;;;;4991355;28;20235;-79
2022/11/11 08:49:04;;;;;;;46.70;14.07;;;;;;;;;;4996955;28;20689;-78
2022/11/11 08:51:31;;;;;;;42.70;13.40;;;;;;;;;;4996554;28;20701;-79
2022/11/11 08:53:58;;;;;;;48.60;13.43;;;;;;;;;;4991955;28;20206;-78
2022/11/11 08:56:25;;;;;;;53.90;12.93;;;;;;;;;;4991595;28;20246;-78
2022/11/11 08:58:53;;;;;;;79.20;16.03;;;;;;;;;;4978952;28;20232;-78
2022/11/11 09:01:20;;;;;;;51.93;14.97;;;;;;;;;;4983672;28;20233;-79
2022/11/11 09:03:47;;;;;;;56.60;14.37;;;;;;;;;;4992120;28;20682;-79
2022/11/11 09:06:15;;;;;;;55.10;14.63;;;;;;;;;;4992089;28;20234;-80
2022/11/11 09:08:43;;;;;;;53.20;15.77;;;;;;;;;;4992327;28;20226;-80
2022/11/11 09:11:10;;;;;;;45.57;14.20;;;;;;;;;;4991155;28;20230;-80
2022/11/11 09:13:37;;;;;;;52.57;13.00;;;;;;;;;;4991846;28;20207;-80
2022/11/11 09:16:06;;;;;;;41.23;13.33;;;;;;;;;;4993993;28;20238;-80
2022/11/11 09:18:34;;;;;;;49.03;13.83;;;;;;;;;;4999138;28;20227;-78
2022/11/11 09:21:01;;;;;;;45.77;14.67;;;;;;;;;;4989116;28;20241;-80
2022/11/11 09:23:28;;;;;;;44.00;14.03;;;;;;;;;;4986535;28;20222;-80
2022/11/11 09:25:56;;;;;;;46.43;14.43;;;;;;;;;;4990176;28;20219;-80
2022/11/11 09:28:24;;;;;;;53.53;15.53;;;;;;;;;;4990806;28;20621;-78
2022/11/11 09:30:51;;;;;;;39.67;14.43;;;;;;;;;;4989062;28;20211;-79
2022/11/11 09:33:20;;;;;;;48.97;12.57;;;;;;;;;;4993748;28;20223;-78
2022/11/11 09:35:47;;;;;;;47.77;12.77;;;;;;;;;;4991769;28;20199;-78
2022/11/11 09:38:14;;;;;;;39.27;12.93;;;;;;;;;;4998116;28;20223;-78
2022/11/11 09:40:47;;;;;;;39.13;13.27;;;;;;;;;;4994198;28;20283;-78
2022/11/11 09:43:20;;;;;;;42.07;11.90;;;;;;;;;;4991114;28;20226;-78
2022/11/11 09:45:53;;;;;;;31.77;11.73;;;;;;;;;;4990755;28;20691;-78
2022/11/11 09:48:33;;;;;;;32.70;13.67;;;;;;;;;;4987097;28;20251;-79
2022/11/11 09:51:01;;;;;;;37.53;12.87;;;;;;;;;;4992900;28;20603;-77
2022/11/11 09:53:30;;;;;;;66.67;16.93;;;;;;;;;;4991141;28;20216;-77
2022/11/11 09:56:00;;;;;;;50.93;10.73;;;;;;;;;;4990644;28;20347;-77
2022/11/11 09:58:30;;;;;;;56.00;13.07;;;;;;;;;;4988484;28;20328;-77
2022/11/11 10:01:00;;;;;;;47.40;13.30;;;;;;;;;;4989825;28;20219;-80
2022/11/11 10:03:30;;;;;;;30.47;12.00;;;;;;;;;;4990019;28;20212;-80
2022/11/11 10:06:01;;;;;;;37.63;12.97;;;;;;;;;;4988666;28;20663;-79
2022/11/11 10:08:29;;;;;;;36.97;12.43;;;;;;;;;;4993187;28;20236;-79
2022/11/11 10:10:59;;;;;;;40.97;13.27;;;;;;;;;;4994409;28;20214;-79
2022/11/11 10:13:29;;;;;;;41.73;14.37;;;;;;;;;;4989875;28;20218;-79
2022/11/11 10:15:58;;;;;;;33.77;14.93;;;;;;;;;;4994445;28;20204;-78
2022/11/11 10:18:35;;;;;;;35.47;12.27;;;;;;;;;;4994270;28;20276;-78
2022/11/11 10:21:06;;;;;;;27.23;11.87;;;;;;;;;;4994384;28;20602;-79
2022/11/11 10:23:34;;;;;;;23.93;10.63;;;;;;;;;;4984285;28;20585;-78
2022/11/11 10:26:04;;;;;;;34.63;13.03;;;;;;;;;;4974565;28;20241;-79
2022/11/11 10:28:33;;;;;;;30.67;11.60;;;;;;;;;;4974771;28;20225;-78
2022/11/11 10:31:02;;;;;;;30.57;11.70;;;;;;;;;;4974703;28;20241;-79
2022/11/11 10:33:31;;;;;;;31.73;11.87;;;;;;;;;;4974654;28;20688;-78
2022/11/11 10:36:01;;;;;;;26.77;12.07;;;;;;;;;;4982951;28;20236;-79
2022/11/11 10:38:34;;;;;;;35.33;12.13;;;;;;;;;;4990670;28;20726;-79
2022/11/11 10:41:05;;;;;;;29.83;12.80;;;;;;;;;;4993964;28;20243;-80
2022/11/11 10:43:32;;;;;;;28.50;12.90;;;;;;;;;;5006600;28;20208;-80
2022/11/11 10:46:02;;;;;;;36.33;13.93;;;;;;;;;;5009763;28;20243;-79
2022/11/11 10:48:39;;;;;;;32.47;13.17;;;;;;;;;;4993599;28;20268;-79
2022/11/11 10:51:08;;;;;;;37.67;12.70;;;;;;;;;;4991983;28;20739;-79
2022/11/11 10:53:39;;;;;;;41.83;14.87;;;;;;;;;;4993640;28;20271;-79
2022/11/11 10:56:10;;;;;;;33.70;14.10;;;;;;;;;;4999233;28;20646;-79
2022/11/11 10:58:41;;;;;;;30.50;13.67;;;;;;;;;;4987591;28;20588;-79
2022/11/11 11:01:10;;;;;;;29.50;13.80;;;;;;;;;;4992598;28;20583;-80
2022/11/11 11:03:40;;;;;;;36.93;15.17;;;;;;;;;;4991673;28;20208;-80
2022/11/11 11:06:11;;;;;;;38.60;17.40;;;;;;;;;;4979291;28;20247;-80
2022/11/11 11:08:43;;;;;;;37.13;15.13;;;;;;;;;;4985434;28;20342;-78
2022/11/11 11:11:12;;;;;;;31.93;15.50;;;;;;;;;;4992826;28;20282;-78
2022/11/11 11:13:42;;;;;;;36.67;17.07;;;;;;;;;;4988500;28;20687;-78
2022/11/11 11:16:10;;;;;;;31.13;15.60;;;;;;;;;;4992249;28;20294;-78
2022/11/11 11:18:37;;;;;;;32.73;16.07;;;;;;;;;;4985189;28;20220;-78
2022/11/11 11:21:06;;;;;;;33.20;17.50;;;;;;;;;;4992431;28;20231;-78
2022/11/11 11:23:38;;;;;;;31.27;17.27;;;;;;;;;;4993025;28;20208;-78
2022/11/11 11:26:06;;;;;;;34.47;16.13;;;;;;;;;;4992510;28;20269;-78
2022/11/11 11:28:34;;;;;;;27.10;15.73;;;;;;;;;;4991796;28;20228;-78
2022/11/11 11:31:02;;;;;;;28.67;13.83;;;;;;;;;;4992915;28;20290;-79
2022/11/11 11:33:49;;;;;;;27.47;15.37;;;;;;;;;;4992655;28;20215;-78
2022/11/11 11:36:17;;;;;;;27.63;14.63;;;;;;;;;;4990467;28;20235;-78
2022/11/11 11:38:49;;;;;;;24.43;14.37;;;;;;;;;;4992636;28;20224;-78
2022/11/11 11:41:17;;;;;;;20.20;13.40;;;;;;;;;;4991362;28;20232;-78
2022/11/11 11:43:45;;;;;;;20.73;13.23;;;;;;;;;;4992741;28;20211;-80
2022/11/11 11:46:16;;;;;;;22.47;13.83;;;;;;;;;;4985637;28;20287;-79
2022/11/11 11:48:54;;;;;;;20.83;14.00;;;;;;;;;;4992476;28;20734;-80
2022/11/11 11:51:27;;;;;;;24.13;13.53;;;;;;;;;;4992217;28;20610;-79
2022/11/11 11:54:02;;;;;;;22.27;13.97;;;;;;;;;;4992464;28;20211;-80
2022/11/11 11:56:34;;;;;;;25.63;13.83;;;;;;;;;;4989487;28;20588;-79
2022/11/11 11:59:06;;;;;;;24.23;13.43;;;;;;;;;;4987784;28;20235;-79
2022/11/11 12:01:36;;;;;;;26.17;13.70;;;;;;;;;;4992457;28;20290;-79
2022/11/11 12:04:16;;;;;;;24.20;13.90;;;;;;;;;;4987577;28;20215;-81
2022/11/11 12:06:51;;;;;;;19.77;13.40;;;;;;;;;;4983462;28;20723;-80
2022/11/11 12:09:26;;;;;;;23.00;12.83;;;;;;;;;;4991641;28;20223;-80
2022/11/11 12:11:57;;;;;;;21.07;14.60;;;;;;;;;;4991920;28;20239;-80
2022/11/11 12:14:32;;;;;;;23.20;14.00;;;;;;;;;;4992082;28;20212;-83
2022/11/11 12:17:02;;;;;;;20.87;12.83;;;;;;;;;;4991598;28;20247;-80
2022/11/11 12:19:46;;;;;;;18.17;12.17;;;;;;;;;;4992269;28;20212;-80
2022/11/11 12:22:23;;;;;;;20.00;12.67;;;;;;;;;;4983485;28;20704;-80
2022/11/11 12:24:54;;;;;;;22.83;13.47;;;;;;;;;;4979118;28;20208;-80
2022/11/11 12:27:33;;;;;;;18.87;12.27;;;;;;;;;;4988616;28;20525;-80
2022/11/11 12:30:04;;;;;;;18.03;12.37;;;;;;;;;;4984773;28;20212;-80
2022/11/11 12:32:37;;;;;;;17.30;11.03;;;;;;;;;;4991385;28;20704;-80
2022/11/11 12:35:16;;;;;;;19.97;11.40;;;;;;;;;;4991061;28;20554;-79
2022/11/11 12:37:48;;;;;;;18.43;11.60;;;;;;;;;;4991114;28;20654;-80
2022/11/11 12:40:20;;;;;;;17.77;10.73;;;;;;;;;;4976006;28;20567;-80
2022/11/11 12:42:54;;;;;;;16.20;10.50;;;;;;;;;;5018451;23;20242;-79
2022/11/11 12:45:22;;;;;;;16.07;9.40;;;;;;;;;;5011097;28;20203;-79
2022/11/11 12:47:57;;;;;;;18.83;9.23;;;;;;;;;;5010930;28;20227;-79
2022/11/11 12:50:26;;;;;;;13.47;9.23;;;;;;;;;;5011555;28;20215;-80
2022/11/11 12:53:01;;;;;;;12.90;9.20;;;;;;;;;;4993171;28;20240;-80
2022/11/11 12:55:36;;;;;;;14.87;9.67;;;;;;;;;;4991542;28;20738;-79
2022/11/11 12:58:12;;;;;;;16.90;10.23;;;;;;;;;;4991297;28;20223;-79
2022/11/11 13:00:44;;;;;;;17.03;9.87;;;;;;;;;;4991757;28;20343;-81
2022/11/11 13:03:18;;;;;;;15.50;10.23;;;;;;;;;;4984883;28;20220;-79
2022/11/11 13:05:50;;;;;;;30.90;9.80;;;;;;;;;;4975698;28;20211;-80
2022/11/11 13:08:34;;;;;;;16.00;10.87;;;;;;;;;;4985542;28;20204;-80
2022/11/11 13:11:07;;;;;;;16.23;10.57;;;;;;;;;;4993134;28;20243;-79
2022/11/11 13:13:48;;;;;;;13.20;10.43;;;;;;;;;;4990219;28;20212;-79
2022/11/11 13:16:16;;;;;;;13.13;9.80;;;;;;;;;;4973669;28;20231;-80
2022/11/11 13:18:46;;;;;;;14.17;9.90;;;;;;;;;;4990578;28;20233;-79
2022/11/11 13:21:15;;;;;;;17.00;11.63;;;;;;;;;;4980413;28;20239;-79
2022/11/11 13:23:42;;;;;;;15.60;11.63;;;;;;;;;;5007027;28;20227;-80
2022/11/11 13:26:21;;;;;;;18.37;12.50;;;;;;;;;;4998368;28;20298;-80
2022/11/11 13:28:49;;;;;;;15.30;11.13;;;;;;;;;;4991673;28;20210;-81
2022/11/11 13:31:22;;;;;;;16.20;10.87;;;;;;;;;;4990649;28;20232;-79
2022/11/11 13:33:50;;;;;;;15.23;10.57;;;;;;;;;;4993861;28;20208;-79
2022/11/11 13:36:19;;;;;;;16.10;11.47;;;;;;;;;;4993844;28;20235;-79
2022/11/11 13:38:47;;;;;;;14.67;10.30;;;;;;;;;;5000262;28;20204;-78
2022/11/11 13:41:22;;;;;;;17.30;10.73;;;;;;;;;;4999827;28;20249;-79
2022/11/11 13:43:50;;;;;;;17.63;11.37;;;;;;;;;;4995213;28;20212;-80
2022/11/11 13:46:31;;;;;;;16.67;11.50;;;;;;;;;;5008926;28;20231;-80
2022/11/11 13:48:59;;;;;;;15.17;10.97;;;;;;;;;;4975470;28;20208;-81
2022/11/11 13:51:27;;;;;;;16.37;11.53;;;;;;;;;;4985409;28;20243;-81
2022/11/11 13:53:55;;;;;;;16.27;10.90;;;;;;;;;;4994516;28;20684;-82
2022/11/11 13:56:27;;;;;;;17.07;11.67;;;;;;;;;;4997149;28;20234;-81
2022/11/11 13:58:56;;;;;;;15.80;11.07;;;;;;;;;;4994425;28;20673;-81
2022/11/11 14:01:23;;;;;;;15.67;11.57;;;;;;;;;;4993751;28;20240;-81
2022/11/11 14:04:01;;;;;;;16.63;12.30;;;;;;;;;;4995155;28;20220;-81
2022/11/11 14:06:49;;;;;;;22.80;12.73;;;;;;;;;;4994988;28;20751;-81
2022/11/11 14:09:31;;;;;;;17.73;10.63;;;;;;;;;;4994255;28;20208;-81
2022/11/11 14:12:13;;;;;;;14.30;10.27;;;;;;;;;;4994180;28;20250;-81
2022/11/11 14:14:47;;;;;;;15.30;10.33;;;;;;;;;;4995589;28;20295;-81
2022/11/11 14:17:15;;;;;;;14.57;11.07;;;;;;;;;;4993933;28;20228;-81
2022/11/11 14:19:43;;;;;;;13.93;10.30;;;;;;;;;;4999656;28;20727;-81
2022/11/11 14:22:29;;;;;;;27.73;10.37;;;;;;;;;;4994868;28;20243;-81
2022/11/11 14:24:56;;;;;;;13.97;9.67;;;;;;;;;;4996741;28;20218;-80
2022/11/11 14:27:26;;;;;;;14.40;9.63;;;;;;;;;;4993390;28;20227;-80
2022/11/11 14:29:57;;;;;;;20.53;11.87;;;;;;;;;;4991020;28;20216;-80
2022/11/11 14:32:39;;;;;;;16.30;10.50;;;;;;;;;;4990541;28;20235;-80
2022/11/11 14:35:21;;;;;;;16.57;9.60;;;;;;;;;;4987369;28;20228;-79
2022/11/11 14:38:12;;;;;;;20.87;9.83;;;;;;;;;;4986000;28;20538;-80
2022/11/11 14:40:40;;;;;;;20.30;10.53;;;;;;;;;;4993488;28;20254;-80
2022/11/11 14:43:25;;;;;;;19.00;11.57;;;;;;;;;;4993471;28;20223;-79
2022/11/11 14:45:54;;;;;;;20.23;9.77;;;;;;;;;;4991274;28;20214;-79
2022/11/11 14:48:40;;;;;;;18.13;10.80;;;;;;;;;;4993115;28;20228;-79
2022/11/11 14:51:33;;;;;;;14.17;10.17;;;;;;;;;;4990404;28;20242;-77
2022/11/11 14:54:00;;;;;;;17.10;11.03;;;;;;;;;;4986330;28;20231;-81
2022/11/11 14:56:28;;;;;;;14.83;9.90;;;;;;;;;;4992062;28;20615;-80
2022/11/11 14:58:58;;;;;;;17.57;10.03;;;;;;;;;;4992098;28;20570;-80
2022/11/11 15:01:27;;;;;;;15.43;10.90;;;;;;;;;;4990943;28;20430;-80
2022/11/11 15:03:55;;;;;;;23.67;10.80;;;;;;;;;;4993289;28;20200;-80
2022/11/11 15:06:24;;;;;;;27.90;11.73;;;;;;;;;;4992386;28;20231;-80
2022/11/11 15:08:55;;;;;;;20.17;11.03;;;;;;;;;;4993826;28;20235;-80
2022/11/11 15:11:27;;;;;;;17.43;11.13;;;;;;;;;;4991639;28;20239;-80
2022/11/11 15:14:06;;;;;;;23.83;12.13;;;;;;;;;;4992796;28;20212;-79
2022/11/11 15:16:40;;;;;;;24.90;12.20;;;;;;;;;;4990679;28;20232;-76
2022/11/11 15:19:17;;;;;;;19.53;12.17;;;;;;;;;;4990167;28;20207;-76
2022/11/11 15:21:50;;;;;;;16.37;11.37;;;;;;;;;;4991489;28;20231;-79
2022/11/11 15:24:26;;;;;;;17.67;11.03;;;;;;;;;;4989617;28;20576;-79
2022/11/11 15:26:58;;;;;;;17.23;10.17;;;;;;;;;;4989616;28;20696;-79
2022/11/11 15:29:38;;;;;;;26.97;12.50;;;;;;;;;;4988076;28;20218;-79
2022/11/11 15:32:12;;;;;;;13.10;9.53;;;;;;;;;;4991093;28;20242;-79
2022/11/11 15:34:41;;;;;;;17.03;10.27;;;;;;;;;;4990611;28;20211;-80
2022/11/11 15:37:11;;;;;;;29.53;10.03;;;;;;;;;;4990812;28;20220;-77
2022/11/11 15:39:40;;;;;;;17.07;9.97;;;;;;;;;;4991491;28;20208;-78
2022/11/11 15:42:12;;;;;;;21.97;10.33;;;;;;;;;;4991553;28;20232;-78
2022/11/11 15:44:39;;;;;;;27.27;11.60;;;;;;;;;;4989700;28;20201;-79
2022/11/11 15:47:08;;;;;;;31.87;12.17;;;;;;;;;;4990794;28;20269;-78
2022/11/11 15:49:38;;;;;;;39.17;11.47;;;;;;;;;;4991674;28;20255;-78
2022/11/11 15:52:06;;;;;;;27.90;11.53;;;;;;;;;;4990830;28;20276;-77
2022/11/11 15:54:34;;;;;;;37.93;11.70;;;;;;;;;;4990559;28;20294;-77
2022/11/11 15:57:01;;;;;;;25.67;10.33;;;;;;;;;;4989337;28;20220;-77
2022/11/11 15:59:34;;;;;;;25.83;12.00;;;;;;;;;;4991051;28;20678;-77
2022/11/11 16:02:07;;;;;;;23.40;10.87;;;;;;;;;;4987990;28;20707;-79
2022/11/11 16:04:36;;;;;;;44.30;13.97;;;;;;;;;;4990937;28;20631;-78